createdAt,value
2022-10-07T00:00:51.194Z,2.07
2022-10-07T00:03:20.014Z,1.87
2022-10-07T00:05:47.719Z,2.13
2022-10-07T00:08:15.459Z,2.40
2022-10-07T00:10:44.096Z,1.87
2022-10-07T00:13:13.029Z,2.10
2022-10-07T00:15:40.652Z,2.67
2022-10-07T00:18:08.208Z,2.60
2022-10-07T00:20:38.431Z,2.40
2022-10-07T00:23:06.499Z,2.20
2022-10-07T00:25:36.626Z,2.13
2022-10-07T00:28:04.388Z,2.37
2022-10-07T00:30:33.437Z,2.70
2022-10-07T00:33:01.419Z,2.37
2022-10-07T00:35:28.979Z,2.20
2022-10-07T00:37:56.565Z,2.37
2022-10-07T00:40:24.205Z,1.80
2022-10-07T00:42:51.840Z,2.30
2022-10-07T00:45:21.241Z,1.60
2022-10-07T00:47:51.607Z,2.37
2022-10-07T00:50:25.106Z,1.80
2022-10-07T00:52:56.307Z,1.63
2022-10-07T00:55:26.918Z,1.63
2022-10-07T00:57:57.762Z,1.70
2022-10-07T01:00:25.465Z,1.60
2022-10-07T01:02:54.492Z,2.20
2022-10-07T01:05:22.468Z,1.73
2022-10-07T01:07:53.284Z,1.60
2022-10-07T01:10:24.370Z,1.80
2022-10-07T01:13:04.349Z,3.43
2022-10-07T01:15:38.509Z,4.60
2022-10-07T01:18:17.912Z,4.23
2022-10-07T01:20:54.026Z,3.37
2022-10-07T01:23:42.254Z,2.03
2022-10-07T01:26:41.071Z,2.40
2022-10-07T01:29:13.995Z,1.70
2022-10-07T01:31:47.347Z,1.80
2022-10-07T01:34:16.088Z,1.90
2022-10-07T01:36:51.855Z,1.77
2022-10-07T01:39:25.423Z,1.40
2022-10-07T01:41:54.558Z,1.50
2022-10-07T01:44:22.839Z,2.00
2022-10-07T01:46:50.448Z,1.67
2022-10-07T01:49:18.067Z,1.77
2022-10-07T01:51:53.714Z,1.67
2022-10-07T01:54:35.027Z,1.77
2022-10-07T01:57:18.261Z,1.57
2022-10-07T02:00:08.314Z,2.00
2022-10-07T02:02:59.995Z,1.43
2022-10-07T02:05:39.058Z,1.70
2022-10-07T02:08:23.156Z,1.50
2022-10-07T02:11:02.946Z,1.77
2022-10-07T02:13:37.759Z,1.60
2022-10-07T02:16:17.280Z,1.80
2022-10-07T02:18:49.885Z,1.47
2022-10-07T02:21:21.199Z,1.43
2022-10-07T02:23:50.233Z,1.97
2022-10-07T02:26:22.034Z,1.83
2022-10-07T02:28:54.158Z,1.87
2022-10-07T02:31:25.201Z,1.70
2022-10-07T02:33:57.129Z,1.63
2022-10-07T02:36:29.551Z,1.67
2022-10-07T02:39:00.281Z,2.50
2022-10-07T02:41:37.421Z,1.80
2022-10-07T02:44:14.556Z,1.67
2022-10-07T02:46:46.956Z,1.67
2022-10-07T02:49:18.829Z,2.50
2022-10-07T02:51:49.469Z,1.87
2022-10-07T02:54:21.367Z,1.60
2022-10-07T02:56:51.300Z,1.63
2022-10-07T02:59:21.378Z,1.53
2022-10-07T03:01:54.771Z,1.53
2022-10-07T03:04:23.347Z,1.27
2022-10-07T03:06:51.017Z,1.50
2022-10-07T03:09:18.682Z,1.70
2022-10-07T03:11:46.329Z,2.00
2022-10-07T03:14:14.004Z,2.43
2022-10-07T03:16:43.051Z,1.80
2022-10-07T03:19:10.831Z,1.90
2022-10-07T03:21:40.463Z,1.67
2022-10-07T03:24:08.181Z,1.43
2022-10-07T03:26:36.348Z,1.83
2022-10-07T03:29:05.356Z,1.63
2022-10-07T03:31:33.091Z,1.60
2022-10-07T03:34:02.056Z,1.70
2022-10-07T03:36:30.377Z,1.37
2022-10-07T03:38:58.566Z,1.27
2022-10-07T03:41:26.210Z,1.30
2022-10-07T03:43:57.373Z,1.63
2022-10-07T03:46:25.081Z,1.30
2022-10-07T03:48:53.227Z,1.50
2022-10-07T03:51:22.408Z,2.00
2022-10-07T03:53:50.044Z,1.20
2022-10-07T03:56:17.664Z,1.60
2022-10-07T03:58:45.260Z,1.60
2022-10-07T04:01:14.534Z,1.60
2022-10-07T04:03:42.542Z,1.60
2022-10-07T04:06:10.570Z,2.20
2022-10-07T04:08:40.971Z,2.23
2022-10-07T04:11:08.619Z,2.00
2022-10-07T04:13:36.179Z,2.50
2022-10-07T04:16:08.467Z,2.50
2022-10-07T04:18:36.104Z,2.73
2022-10-07T04:21:03.789Z,2.13
2022-10-07T04:23:31.455Z,2.30
2022-10-07T04:26:00.696Z,1.90
2022-10-07T04:28:28.432Z,2.07
2022-10-07T04:30:56.141Z,1.70
2022-10-07T04:33:25.071Z,2.10
2022-10-07T04:35:52.745Z,2.40
2022-10-07T04:38:21.722Z,1.80
2022-10-07T04:40:51.879Z,2.50
2022-10-07T04:43:23.469Z,2.30
2022-10-07T04:45:53.635Z,1.60
2022-10-07T04:48:22.547Z,2.53
2022-10-07T04:50:51.841Z,1.70
2022-10-07T04:53:20.074Z,1.90
2022-10-07T04:55:49.987Z,1.90
2022-10-07T04:58:18.459Z,2.30
2022-10-07T05:00:49.530Z,2.17
2022-10-07T05:03:19.110Z,2.43
2022-10-07T05:05:48.757Z,2.30
2022-10-07T05:08:18.536Z,2.27
2022-10-07T05:10:46.152Z,2.63
2022-10-07T05:13:16.832Z,3.00
2022-10-07T05:15:53.894Z,3.13
2022-10-07T05:18:23.105Z,2.47
2022-10-07T05:20:51.319Z,2.37
2022-10-07T05:23:24.429Z,2.97
2022-10-07T05:26:00.208Z,2.80
2022-10-07T05:28:27.948Z,2.00
2022-10-07T05:31:05.734Z,3.47
2022-10-07T05:33:33.906Z,2.53
2022-10-07T05:36:01.790Z,2.30
2022-10-07T05:38:29.709Z,2.97
2022-10-07T05:40:59.773Z,2.43
2022-10-07T05:43:28.098Z,2.70
2022-10-07T05:46:01.373Z,2.50
2022-10-07T05:48:36.671Z,2.53
2022-10-07T05:51:07.807Z,2.00
2022-10-07T05:53:35.813Z,1.70
2022-10-07T05:56:06.737Z,2.30
2022-10-07T05:58:35.402Z,1.77
2022-10-07T06:01:11.334Z,1.83
2022-10-07T06:03:43.289Z,1.80
2022-10-07T06:06:11.350Z,2.10
2022-10-07T06:08:38.885Z,2.60
2022-10-07T06:11:25.526Z,2.50
2022-10-07T06:13:55.337Z,2.43
2022-10-07T06:16:23.469Z,2.70
2022-10-07T06:18:52.926Z,2.43
2022-10-07T06:21:21.500Z,2.50
2022-10-07T06:23:52.839Z,2.33
2022-10-07T06:26:21.254Z,2.47
2022-10-07T06:28:49.040Z,2.47
2022-10-07T06:31:22.230Z,2.40
2022-10-07T06:33:50.302Z,2.43
2022-10-07T06:36:19.860Z,3.10
2022-10-07T06:38:48.769Z,3.30
2022-10-07T06:41:17.053Z,2.20
2022-10-07T06:43:45.255Z,3.00
2022-10-07T06:46:15.767Z,2.97
2022-10-07T06:48:44.552Z,2.80
2022-10-07T06:51:15.284Z,2.33
2022-10-07T06:53:44.862Z,2.80
2022-10-07T06:56:14.398Z,2.97
2022-10-07T06:58:43.447Z,2.40
2022-10-07T07:01:11.821Z,2.40
2022-10-07T07:03:41.666Z,2.40
2022-10-07T07:06:10.891Z,2.30
2022-10-07T07:08:41.055Z,2.67
2022-10-07T07:11:25.463Z,2.70
2022-10-07T07:13:53.138Z,2.50
2022-10-07T07:16:20.949Z,2.60
2022-10-07T07:18:51.886Z,2.80
2022-10-07T07:21:19.626Z,2.27
2022-10-07T07:23:47.356Z,2.10
2022-10-07T07:26:17.007Z,2.50
2022-10-07T07:28:44.778Z,2.67
2022-10-07T07:31:13.665Z,2.20
2022-10-07T07:33:41.378Z,2.23
2022-10-07T07:36:16.274Z,2.53
2022-10-07T07:38:43.972Z,3.00
2022-10-07T07:41:11.965Z,2.00
2022-10-07T07:43:40.925Z,2.30
2022-10-07T07:46:08.618Z,2.00
2022-10-07T07:48:36.262Z,2.80
2022-10-07T07:51:06.770Z,2.37
2022-10-07T07:53:35.130Z,2.80
2022-10-07T07:56:03.381Z,3.10
2022-10-07T07:58:30.961Z,2.67
2022-10-07T08:01:01.194Z,3.13
2022-10-07T08:03:28.900Z,2.67
2022-10-07T08:05:56.903Z,2.87
2022-10-07T08:08:25.016Z,3.20
2022-10-07T08:10:52.621Z,3.90
2022-10-07T08:13:20.752Z,3.20
2022-10-07T08:15:48.485Z,3.33
2022-10-07T08:18:17.476Z,3.40
2022-10-07T08:20:46.748Z,2.77
2022-10-07T08:23:14.331Z,3.57
2022-10-07T08:25:43.880Z,3.10
2022-10-07T08:28:11.543Z,2.63
2022-10-07T08:30:39.231Z,2.40
2022-10-07T08:33:06.894Z,2.80
2022-10-07T08:35:35.923Z,3.73
2022-10-07T08:38:03.470Z,2.80
2022-10-07T08:40:31.218Z,2.70
2022-10-07T08:42:59.509Z,2.77
2022-10-07T08:45:31.724Z,2.30
2022-10-07T08:48:04.329Z,2.43
2022-10-07T08:50:42.574Z,2.60
2022-10-07T08:53:20.489Z,2.80
2022-10-07T08:55:52.899Z,2.90
2022-10-07T08:58:40.936Z,3.00
2022-10-07T09:01:20.078Z,2.78
2022-10-07T09:03:56.525Z,2.40
2022-10-07T09:06:29.363Z,2.38
2022-10-07T09:09:03.230Z,2.63
2022-10-07T09:11:33.858Z,2.67
2022-10-07T09:14:09.983Z,3.65
2022-10-07T09:16:43.362Z,2.47
2022-10-07T09:19:18.179Z,2.25
2022-10-07T09:21:51.179Z,2.65
2022-10-07T09:24:21.696Z,2.20
2022-10-07T09:26:49.905Z,2.58
2022-10-07T09:29:21.079Z,2.75
2022-10-07T09:31:49.299Z,2.38
2022-10-07T09:34:22.304Z,2.40
2022-10-07T09:37:21.127Z,2.35
2022-10-07T09:39:50.812Z,2.20
2022-10-07T09:42:36.088Z,2.17
2022-10-07T09:45:18.747Z,2.75
2022-10-07T09:47:52.479Z,2.33
2022-10-07T09:50:33.609Z,2.30
2022-10-07T09:53:03.054Z,3.03
2022-10-07T09:55:37.619Z,2.47
2022-10-07T09:58:07.174Z,2.08
2022-10-07T10:00:43.850Z,2.58
2022-10-07T10:03:11.953Z,2.77
2022-10-07T10:05:42.331Z,3.00
2022-10-07T10:08:24.908Z,2.97
2022-10-07T10:10:54.540Z,2.57
2022-10-07T10:13:32.469Z,2.90
2022-10-07T10:16:01.165Z,2.33
2022-10-07T10:18:33.177Z,1.70
2022-10-07T10:21:21.230Z,2.43
2022-10-07T10:23:52.689Z,2.20
2022-10-07T10:26:33.899Z,2.73
2022-10-07T10:29:16.706Z,2.87
2022-10-07T10:32:20.987Z,2.30
2022-10-07T10:34:55.858Z,2.87
2022-10-07T10:37:28.241Z,2.57
2022-10-07T10:40:09.424Z,3.10
2022-10-07T10:42:44.396Z,2.37
2022-10-07T10:45:33.260Z,3.30
2022-10-07T10:48:30.089Z,2.70
2022-10-07T10:51:07.095Z,2.37
2022-10-07T10:53:48.457Z,3.60
2022-10-07T10:56:29.372Z,2.77
2022-10-07T10:59:11.100Z,2.83
2022-10-07T11:01:41.117Z,3.90
2022-10-07T11:04:28.338Z,3.47
2022-10-07T11:07:01.773Z,3.53
2022-10-07T11:09:36.954Z,2.77
2022-10-07T11:12:24.972Z,3.53
2022-10-07T11:14:58.031Z,3.50
2022-10-07T11:17:31.666Z,3.40
2022-10-07T11:20:08.390Z,3.20
2022-10-07T11:22:42.595Z,3.20
2022-10-07T11:25:28.181Z,2.73
2022-10-07T11:28:15.900Z,2.83
2022-10-07T11:30:51.880Z,2.95
2022-10-07T11:33:27.272Z,2.60
2022-10-07T11:36:00.244Z,3.17
2022-10-07T11:38:33.391Z,3.15
2022-10-07T11:41:08.704Z,3.00
2022-10-07T11:43:45.385Z,3.47
2022-10-07T11:46:19.212Z,3.15
2022-10-07T11:48:50.924Z,3.00
2022-10-07T11:51:25.550Z,3.90
2022-10-07T11:53:56.231Z,3.30
2022-10-07T11:56:27.013Z,3.42
2022-10-07T11:59:01.746Z,3.23
2022-10-07T12:01:55.144Z,2.73
2022-10-07T12:04:40.526Z,2.93
2022-10-07T12:07:37.875Z,3.10
2022-10-07T12:10:26.892Z,2.73
2022-10-07T12:12:56.967Z,2.97
2022-10-07T12:15:35.702Z,3.10
2022-10-07T12:18:38.759Z,3.60
2022-10-07T12:21:08.498Z,2.50
2022-10-07T12:23:43.489Z,3.03
2022-10-07T12:26:50.309Z,2.63
2022-10-07T12:29:50.127Z,3.00
2022-10-07T12:33:00.840Z,2.40
2022-10-07T12:35:56.443Z,2.40
2022-10-07T12:38:29.106Z,2.27
2022-10-07T12:41:24.851Z,2.10
2022-10-07T12:44:00.541Z,2.33
2022-10-07T12:46:33.672Z,1.83
2022-10-07T12:49:06.181Z,1.87
2022-10-07T12:51:38.633Z,2.03
2022-10-07T12:54:12.912Z,2.50
2022-10-07T12:56:44.179Z,1.77
2022-10-07T12:59:48.365Z,2.23
2022-10-07T13:02:59.540Z,2.10
2022-10-07T13:05:54.098Z,1.80
2022-10-07T13:08:54.301Z,1.90
2022-10-07T13:11:59.778Z,2.40
2022-10-07T13:14:33.256Z,2.10
2022-10-07T13:17:13.222Z,2.20
2022-10-07T13:19:49.136Z,2.57
2022-10-07T13:22:19.014Z,2.37
2022-10-07T13:24:49.893Z,2.20
2022-10-07T13:27:20.224Z,2.80
2022-10-07T13:29:48.934Z,2.40
2022-10-07T13:32:18.846Z,1.70
2022-10-07T13:34:47.257Z,1.83
2022-10-07T13:37:30.729Z,1.97
2022-10-07T13:39:59.594Z,2.17
2022-10-07T13:42:29.700Z,2.63
2022-10-07T13:45:02.483Z,1.60
2022-10-07T13:47:33.771Z,2.70
2022-10-07T13:50:03.041Z,2.07
2022-10-07T13:52:38.897Z,2.33
2022-10-07T13:55:21.278Z,2.37
2022-10-07T13:57:49.044Z,2.27
2022-10-07T14:00:17.391Z,2.47
2022-10-07T14:02:45.864Z,2.40
2022-10-07T14:05:20.398Z,2.40
2022-10-07T14:07:55.078Z,2.53
2022-10-07T14:10:24.983Z,3.27
2022-10-07T14:12:58.001Z,2.53
2022-10-07T14:15:29.034Z,2.73
2022-10-07T14:18:00.390Z,2.90
2022-10-07T14:20:31.424Z,2.60
2022-10-07T14:23:03.464Z,2.40
2022-10-07T14:25:35.448Z,2.63
2022-10-07T14:28:16.091Z,2.80
2022-10-07T14:31:02.511Z,3.07
2022-10-07T14:33:58.609Z,3.83
2022-10-07T14:36:26.635Z,3.90
2022-10-07T14:38:58.006Z,3.83
2022-10-07T14:41:28.821Z,4.20
2022-10-07T14:43:59.894Z,3.93
2022-10-07T14:46:29.350Z,5.13
2022-10-07T14:48:57.029Z,4.67
2022-10-07T14:51:27.389Z,4.23
2022-10-07T14:54:01.791Z,4.50
2022-10-07T14:56:32.183Z,4.80
2022-10-07T14:58:59.789Z,5.20
2022-10-07T15:01:29.770Z,6.23
2022-10-07T15:03:57.724Z,5.93
2022-10-07T15:06:26.312Z,6.33
2022-10-07T15:08:53.994Z,5.83
2022-10-07T15:11:23.009Z,5.93
2022-10-07T15:13:50.964Z,5.97
2022-10-07T15:16:20.656Z,5.40
2022-10-07T15:18:52.434Z,4.70
2022-10-07T15:21:20.460Z,4.40
2022-10-07T15:23:51.491Z,4.10
2022-10-07T15:26:21.295Z,3.30
2022-10-07T15:28:52.330Z,3.63
2022-10-07T15:31:19.972Z,3.27
2022-10-07T15:33:47.894Z,3.17
2022-10-07T15:36:16.013Z,4.00
2022-10-07T15:38:43.658Z,3.67
2022-10-07T15:41:29.732Z,3.73
2022-10-07T15:43:59.692Z,5.30
2022-10-07T15:46:27.978Z,7.03
2022-10-07T15:48:57.041Z,5.10
2022-10-07T15:51:25.399Z,6.27
2022-10-07T15:53:53.366Z,5.70
2022-10-07T15:56:21.084Z,5.33
2022-10-07T15:58:48.800Z,5.23
2022-10-07T16:01:17.907Z,3.70
2022-10-07T16:03:48.067Z,3.97
2022-10-07T16:06:18.329Z,3.40
2022-10-07T16:08:45.928Z,4.37
2022-10-07T16:11:14.358Z,4.40
2022-10-07T16:13:44.664Z,4.20
2022-10-07T16:16:14.659Z,3.73
2022-10-07T16:18:45.767Z,3.83
2022-10-07T16:21:15.302Z,3.63
2022-10-07T16:23:45.665Z,4.53
2022-10-07T16:26:14.987Z,3.93
2022-10-07T16:29:02.235Z,4.50
2022-10-07T16:31:31.473Z,4.73
2022-10-07T16:34:00.679Z,4.47
2022-10-07T16:36:28.297Z,4.97
2022-10-07T16:38:57.629Z,5.37
2022-10-07T16:41:25.266Z,4.73
2022-10-07T16:43:52.926Z,4.70
2022-10-07T16:46:21.696Z,4.20
2022-10-07T16:48:50.899Z,5.27
2022-10-07T16:51:22.255Z,4.80
2022-10-07T16:53:55.325Z,5.27
2022-10-07T16:56:23.971Z,4.30
2022-10-07T16:58:56.077Z,5.33
2022-10-07T17:01:23.905Z,4.80
2022-10-07T17:03:51.553Z,5.00
2022-10-07T17:06:22.917Z,4.70
2022-10-07T17:08:50.741Z,4.47
2022-10-07T17:11:29.979Z,3.87
2022-10-07T17:13:58.845Z,4.40
2022-10-07T17:16:27.423Z,4.20
2022-10-07T17:18:55.400Z,4.63
2022-10-07T17:21:24.348Z,5.00
2022-10-07T17:23:52.364Z,4.33
2022-10-07T17:26:21.011Z,5.20
2022-10-07T17:28:49.685Z,5.33
2022-10-07T17:31:18.087Z,4.70
2022-10-07T17:33:46.201Z,5.30
2022-10-07T17:36:14.228Z,5.53
2022-10-07T17:38:45.558Z,5.83
2022-10-07T17:41:16.444Z,4.90
2022-10-07T17:43:44.277Z,4.70
2022-10-07T17:46:14.017Z,4.93
2022-10-07T17:48:45.197Z,4.77
2022-10-07T17:51:14.510Z,6.10
2022-10-07T17:53:44.854Z,7.47
2022-10-07T17:56:15.673Z,9.17
2022-10-07T17:58:44.654Z,9.27
2022-10-07T18:01:14.540Z,7.27
2022-10-07T18:03:42.834Z,11.90
2022-10-07T18:06:13.149Z,9.67
2022-10-07T18:08:43.025Z,10.07
2022-10-07T18:11:11.123Z,8.53
2022-10-07T18:13:56.241Z,7.80
2022-10-07T18:16:24.499Z,7.30
2022-10-07T18:18:54.610Z,7.53
2022-10-07T18:21:23.307Z,7.60
2022-10-07T18:23:54.381Z,8.27
2022-10-07T18:26:21.911Z,9.20
2022-10-07T18:28:49.669Z,11.33
2022-10-07T18:31:18.423Z,11.23
2022-10-07T18:33:46.530Z,11.23
2022-10-07T18:36:16.398Z,10.43
2022-10-07T18:38:45.504Z,9.87
2022-10-07T18:41:16.394Z,9.00
2022-10-07T18:43:45.402Z,8.77
2022-10-07T18:46:16.287Z,8.73
2022-10-07T18:48:47.903Z,8.70
2022-10-07T18:51:16.054Z,8.90
2022-10-07T18:53:46.498Z,9.73
2022-10-07T18:56:17.419Z,9.77
2022-10-07T18:58:48.050Z,9.23
2022-10-07T19:01:18.460Z,9.90
2022-10-07T19:03:48.809Z,9.63
2022-10-07T19:06:18.773Z,11.47
2022-10-07T19:08:47.100Z,9.53
2022-10-07T19:11:18.222Z,10.27
2022-10-07T19:13:48.157Z,9.33
2022-10-07T19:16:16.962Z,8.90
2022-10-07T19:18:45.127Z,8.80
2022-10-07T19:21:13.456Z,9.03
2022-10-07T19:23:41.418Z,8.03
2022-10-07T19:26:11.535Z,8.67
2022-10-07T19:28:41.919Z,7.73
2022-10-07T19:31:15.355Z,8.53
2022-10-07T19:33:43.751Z,6.77
2022-10-07T19:36:12.344Z,7.23
2022-10-07T19:38:43.168Z,7.60
2022-10-07T19:41:12.959Z,7.30
2022-10-07T19:43:43.282Z,7.80
2022-10-07T19:46:11.435Z,8.20
2022-10-07T19:48:39.520Z,6.90
2022-10-07T19:51:09.567Z,6.93
2022-10-07T19:53:37.285Z,8.17
2022-10-07T19:56:11.343Z,7.40
2022-10-07T19:58:39.877Z,7.83
2022-10-07T20:01:11.641Z,7.03
2022-10-07T20:03:39.276Z,7.57
2022-10-07T20:06:08.472Z,7.67
2022-10-07T20:08:37.854Z,7.40
2022-10-07T20:11:06.126Z,7.23
2022-10-07T20:13:35.743Z,7.53
2022-10-07T20:16:05.870Z,8.37
2022-10-07T20:18:36.098Z,6.50
2022-10-07T20:21:08.685Z,8.03
2022-10-07T20:23:38.002Z,6.60
2022-10-07T20:26:06.915Z,7.20
2022-10-07T20:28:35.462Z,6.63
2022-10-07T20:31:04.782Z,6.23
2022-10-07T20:33:39.979Z,6.27
2022-10-07T20:36:08.681Z,6.47
2022-10-07T20:38:50.570Z,5.80
2022-10-07T20:41:35.578Z,6.03
2022-10-07T20:44:03.239Z,5.67
2022-10-07T20:46:30.949Z,5.90
2022-10-07T20:49:00.034Z,5.30
2022-10-07T20:51:28.165Z,6.03
2022-10-07T20:53:55.783Z,6.37
2022-10-07T20:56:23.563Z,5.70
2022-10-07T20:58:52.097Z,6.23
2022-10-07T21:01:19.854Z,6.20
2022-10-07T21:03:47.681Z,5.90
2022-10-07T21:06:18.498Z,6.20
2022-10-07T21:08:47.209Z,6.10
2022-10-07T21:11:15.335Z,5.67
2022-10-07T21:13:43.087Z,6.60
2022-10-07T21:16:11.051Z,5.73
2022-10-07T21:18:39.095Z,5.93
2022-10-07T21:21:07.893Z,5.90
2022-10-07T21:23:36.810Z,6.00
2022-10-07T21:26:07.152Z,6.03
2022-10-07T21:28:36.586Z,5.63
2022-10-07T21:31:08.302Z,5.63
2022-10-07T21:33:38.543Z,5.60
2022-10-07T21:36:08.275Z,5.83
2022-10-07T21:38:37.858Z,5.77
2022-10-07T21:41:12.974Z,6.10
2022-10-07T21:43:41.212Z,4.97
2022-10-07T21:46:09.360Z,5.13
2022-10-07T21:48:37.387Z,5.00
2022-10-07T21:51:09.521Z,5.27
2022-10-07T21:53:40.889Z,5.10
2022-10-07T21:56:11.764Z,5.77
2022-10-07T21:58:39.645Z,5.20
2022-10-07T22:01:12.978Z,6.07
2022-10-07T22:03:40.814Z,5.20
2022-10-07T22:06:10.664Z,5.57
2022-10-07T22:08:40.082Z,5.10
2022-10-07T22:11:10.267Z,5.40
2022-10-07T22:13:39.991Z,5.20
2022-10-07T22:16:14.412Z,4.50
2022-10-07T22:18:43.568Z,4.57
2022-10-07T22:21:13.430Z,4.70
2022-10-07T22:23:42.428Z,5.70
2022-10-07T22:26:12.880Z,4.40
2022-10-07T22:28:41.210Z,5.10
2022-10-07T22:31:10.763Z,5.50
2022-10-07T22:33:39.880Z,4.83
2022-10-07T22:36:09.972Z,5.17
2022-10-07T22:38:37.843Z,4.83
2022-10-07T22:41:10.288Z,4.50
2022-10-07T22:43:38.637Z,4.83
2022-10-07T22:46:07.413Z,4.77
2022-10-07T22:48:37.475Z,4.30
2022-10-07T22:51:08.328Z,4.43
2022-10-07T22:53:37.040Z,4.67
2022-10-07T22:56:07.944Z,4.77
2022-10-07T22:58:35.899Z,5.13
2022-10-07T23:01:04.378Z,4.93
2022-10-07T23:03:32.097Z,4.90
2022-10-07T23:06:00.663Z,4.93
2022-10-07T23:08:28.653Z,4.87
2022-10-07T23:10:57.111Z,4.63
2022-10-07T23:13:27.070Z,4.30
2022-10-07T23:15:58.885Z,5.00
2022-10-07T23:18:27.379Z,4.77
2022-10-07T23:21:01.494Z,4.77
2022-10-07T23:23:30.238Z,4.93
2022-10-07T23:25:58.073Z,4.80
2022-10-07T23:28:27.224Z,4.37
2022-10-07T23:30:56.377Z,4.90
2022-10-07T23:33:24.411Z,4.40
2022-10-07T23:35:56.701Z,4.10
2022-10-07T23:38:26.355Z,4.63
2022-10-07T23:40:54.354Z,4.63
2022-10-07T23:43:22.388Z,4.80
2022-10-07T23:45:51.933Z,4.87
2022-10-07T23:48:19.900Z,5.07
2022-10-07T23:50:50.838Z,4.83
2022-10-07T23:53:19.836Z,5.00
2022-10-07T23:55:48.999Z,5.10
2022-10-07T23:58:18.308Z,4.50
